sensor_id;sensor_type;location;lat;lon;timestamp;P1;durP1;ratioP1;P2;durP2;ratioP2
36653;SDS011;22650;49.350;20.898;2022-12-18T00:01:46;48.88;;;14.98;;
36653;SDS011;22650;49.350;20.898;2022-12-18T00:04:20;38.72;;;13.65;;
36653;SDS011;22650;49.350;20.898;2022-12-18T00:06:55;45.22;;;16.27;;
36653;SDS011;22650;49.350;20.898;2022-12-18T00:09:29;34.15;;;14.18;;
36653;SDS011;22650;49.350;20.898;2022-12-18T00:12:11;41.05;;;15.05;;
36653;SDS011;22650;49.350;20.898;2022-12-18T00:14:47;43.83;;;13.70;;
36653;SDS011;22650;49.350;20.898;2022-12-18T00:17:21;40.92;;;14.70;;
36653;SDS011;22650;49.350;20.898;2022-12-18T00:19:54;49.13;;;15.07;;
36653;SDS011;22650;49.350;20.898;2022-12-18T00:22:27;43.35;;;15.73;;
36653;SDS011;22650;49.350;20.898;2022-12-18T00:25:01;43.78;;;17.70;;
36653;SDS011;22650;49.350;20.898;2022-12-18T00:27:34;44.10;;;14.88;;
36653;SDS011;22650;49.350;20.898;2022-12-18T00:30:10;49.50;;;17.20;;
36653;SDS011;22650;49.350;20.898;2022-12-18T00:32:43;46.45;;;16.13;;
36653;SDS011;22650;49.350;20.898;2022-12-18T00:35:17;38.05;;;15.73;;
36653;SDS011;22650;49.350;20.898;2022-12-18T00:37:50;45.13;;;16.40;;
36653;SDS011;22650;49.350;20.898;2022-12-18T00:40:24;46.78;;;15.38;;
36653;SDS011;22650;49.350;20.898;2022-12-18T00:42:58;42.05;;;15.18;;
36653;SDS011;22650;49.350;20.898;2022-12-18T00:48:05;59.10;;;20.13;;
36653;SDS011;22650;49.350;20.898;2022-12-18T00:50:39;52.20;;;17.42;;
36653;SDS011;22650;49.350;20.898;2022-12-18T00:53:12;60.83;;;18.52;;
36653;SDS011;22650;49.350;20.898;2022-12-18T00:55:46;58.97;;;19.73;;
36653;SDS011;22650;49.350;20.898;2022-12-18T00:58:20;57.22;;;18.83;;
36653;SDS011;22650;49.350;20.898;2022-12-18T01:00:54;54.53;;;18.67;;
36653;SDS011;22650;49.350;20.898;2022-12-18T01:03:28;54.50;;;19.35;;
36653;SDS011;22650;49.350;20.898;2022-12-18T01:06:04;61.67;;;20.67;;
36653;SDS011;22650;49.350;20.898;2022-12-18T01:08:39;68.57;;;22.00;;
36653;SDS011;22650;49.350;20.898;2022-12-18T01:11:16;57.58;;;21.40;;
36653;SDS011;22650;49.350;20.898;2022-12-18T01:13:52;66.75;;;21.52;;
36653;SDS011;22650;49.350;20.898;2022-12-18T01:16:28;55.80;;;19.42;;
36653;SDS011;22650;49.350;20.898;2022-12-18T01:19:01;67.50;;;22.52;;
36653;SDS011;22650;49.350;20.898;2022-12-18T01:21:34;64.97;;;21.40;;
36653;SDS011;22650;49.350;20.898;2022-12-18T01:24:09;67.45;;;21.45;;
36653;SDS011;22650;49.350;20.898;2022-12-18T01:26:45;75.95;;;22.38;;
36653;SDS011;22650;49.350;20.898;2022-12-18T01:29:19;78.38;;;23.30;;
36653;SDS011;22650;49.350;20.898;2022-12-18T01:31:54;62.72;;;22.10;;
36653;SDS011;22650;49.350;20.898;2022-12-18T01:34:28;80.65;;;24.98;;
36653;SDS011;22650;49.350;20.898;2022-12-18T01:37:02;66.38;;;23.77;;
36653;SDS011;22650;49.350;20.898;2022-12-18T01:39:36;69.75;;;24.10;;
36653;SDS011;22650;49.350;20.898;2022-12-18T01:42:10;65.32;;;22.25;;
36653;SDS011;22650;49.350;20.898;2022-12-18T01:45:04;69.28;;;22.80;;
36653;SDS011;22650;49.350;20.898;2022-12-18T01:47:43;71.03;;;21.42;;
36653;SDS011;22650;49.350;20.898;2022-12-18T01:50:19;57.78;;;18.73;;
36653;SDS011;22650;49.350;20.898;2022-12-18T01:52:56;66.80;;;23.50;;
36653;SDS011;22650;49.350;20.898;2022-12-18T01:55:35;56.33;;;20.08;;
36653;SDS011;22650;49.350;20.898;2022-12-18T01:58:10;58.58;;;18.27;;
36653;SDS011;22650;49.350;20.898;2022-12-18T02:00:44;65.55;;;22.95;;
36653;SDS011;22650;49.350;20.898;2022-12-18T02:03:19;60.22;;;22.73;;
36653;SDS011;22650;49.350;20.898;2022-12-18T02:05:55;65.85;;;20.23;;
36653;SDS011;22650;49.350;20.898;2022-12-18T02:08:40;63.50;;;21.33;;
36653;SDS011;22650;49.350;20.898;2022-12-18T02:11:33;77.97;;;22.17;;
36653;SDS011;22650;49.350;20.898;2022-12-18T02:14:17;66.95;;;23.23;;
36653;SDS011;22650;49.350;20.898;2022-12-18T02:16:59;65.05;;;21.30;;
36653;SDS011;22650;49.350;20.898;2022-12-18T02:19:42;57.85;;;20.00;;
36653;SDS011;22650;49.350;20.898;2022-12-18T02:22:26;69.05;;;20.98;;
36653;SDS011;22650;49.350;20.898;2022-12-18T02:25:12;62.67;;;21.75;;
36653;SDS011;22650;49.350;20.898;2022-12-18T02:27:53;61.20;;;21.67;;
36653;SDS011;22650;49.350;20.898;2022-12-18T02:30:33;72.18;;;24.17;;
36653;SDS011;22650;49.350;20.898;2022-12-18T02:33:10;79.72;;;23.77;;
36653;SDS011;22650;49.350;20.898;2022-12-18T02:35:47;74.40;;;26.05;;
36653;SDS011;22650;49.350;20.898;2022-12-18T02:38:23;70.60;;;22.67;;
36653;SDS011;22650;49.350;20.898;2022-12-18T02:40:59;85.20;;;23.55;;
36653;SDS011;22650;49.350;20.898;2022-12-18T02:43:34;76.82;;;21.52;;
36653;SDS011;22650;49.350;20.898;2022-12-18T02:46:20;69.40;;;20.75;;
36653;SDS011;22650;49.350;20.898;2022-12-18T02:49:09;77.93;;;23.77;;
36653;SDS011;22650;49.350;20.898;2022-12-18T02:51:53;74.03;;;22.70;;
36653;SDS011;22650;49.350;20.898;2022-12-18T02:54:33;63.90;;;16.92;;
36653;SDS011;22650;49.350;20.898;2022-12-18T02:57:16;65.50;;;20.25;;
36653;SDS011;22650;49.350;20.898;2022-12-18T02:59:58;65.13;;;19.63;;
36653;SDS011;22650;49.350;20.898;2022-12-18T03:02:37;66.55;;;21.40;;
36653;SDS011;22650;49.350;20.898;2022-12-18T03:05:16;55.05;;;17.17;;
36653;SDS011;22650;49.350;20.898;2022-12-18T03:07:56;56.95;;;19.35;;
36653;SDS011;22650;49.350;20.898;2022-12-18T03:10:35;59.10;;;18.55;;
36653;SDS011;22650;49.350;20.898;2022-12-18T03:13:14;57.33;;;19.00;;
36653;SDS011;22650;49.350;20.898;2022-12-18T03:15:54;60.40;;;18.80;;
36653;SDS011;22650;49.350;20.898;2022-12-18T03:18:29;56.80;;;20.30;;
36653;SDS011;22650;49.350;20.898;2022-12-18T03:21:07;57.40;;;17.67;;
36653;SDS011;22650;49.350;20.898;2022-12-18T03:23:44;64.68;;;18.63;;
36653;SDS011;22650;49.350;20.898;2022-12-18T03:26:24;53.25;;;18.70;;
36653;SDS011;22650;49.350;20.898;2022-12-18T03:29:04;68.85;;;19.88;;
36653;SDS011;22650;49.350;20.898;2022-12-18T03:31:45;54.28;;;17.48;;
36653;SDS011;22650;49.350;20.898;2022-12-18T03:34:23;69.25;;;20.08;;
36653;SDS011;22650;49.350;20.898;2022-12-18T03:37:03;74.03;;;20.42;;
36653;SDS011;22650;49.350;20.898;2022-12-18T03:39:38;57.45;;;19.50;;
36653;SDS011;22650;49.350;20.898;2022-12-18T03:42:13;62.40;;;18.98;;
36653;SDS011;22650;49.350;20.898;2022-12-18T03:44:56;76.88;;;20.58;;
36653;SDS011;22650;49.350;20.898;2022-12-18T03:47:38;73.07;;;21.27;;
36653;SDS011;22650;49.350;20.898;2022-12-18T03:50:18;66.82;;;21.27;;
36653;SDS011;22650;49.350;20.898;2022-12-18T03:52:57;68.65;;;21.80;;
36653;SDS011;22650;49.350;20.898;2022-12-18T03:55:36;56.95;;;19.25;;
36653;SDS011;22650;49.350;20.898;2022-12-18T03:58:12;67.40;;;20.83;;
36653;SDS011;22650;49.350;20.898;2022-12-18T04:01:01;63.33;;;20.83;;
36653;SDS011;22650;49.350;20.898;2022-12-18T04:03:39;70.50;;;22.67;;
36653;SDS011;22650;49.350;20.898;2022-12-18T04:06:16;65.80;;;20.35;;
36653;SDS011;22650;49.350;20.898;2022-12-18T04:08:50;73.55;;;20.90;;
36653;SDS011;22650;49.350;20.898;2022-12-18T04:11:26;57.83;;;19.98;;
36653;SDS011;22650;49.350;20.898;2022-12-18T04:14:00;70.13;;;23.23;;
36653;SDS011;22650;49.350;20.898;2022-12-18T04:16:38;75.68;;;22.67;;
36653;SDS011;22650;49.350;20.898;2022-12-18T04:19:16;63.83;;;22.25;;
36653;SDS011;22650;49.350;20.898;2022-12-18T04:21:52;78.18;;;23.67;;
36653;SDS011;22650;49.350;20.898;2022-12-18T04:24:26;85.15;;;25.20;;
36653;SDS011;22650;49.350;20.898;2022-12-18T04:27:11;69.45;;;20.95;;
36653;SDS011;22650;49.350;20.898;2022-12-18T04:29:50;85.95;;;23.92;;
36653;SDS011;22650;49.350;20.898;2022-12-18T04:32:24;74.57;;;22.13;;
36653;SDS011;22650;49.350;20.898;2022-12-18T04:34:58;76.53;;;25.75;;
36653;SDS011;22650;49.350;20.898;2022-12-18T04:37:32;69.15;;;21.48;;
36653;SDS011;22650;49.350;20.898;2022-12-18T04:40:06;78.20;;;22.75;;
36653;SDS011;22650;49.350;20.898;2022-12-18T04:42:44;78.93;;;23.40;;
36653;SDS011;22650;49.350;20.898;2022-12-18T04:45:18;75.28;;;24.23;;
36653;SDS011;22650;49.350;20.898;2022-12-18T04:47:51;62.85;;;22.23;;
36653;SDS011;22650;49.350;20.898;2022-12-18T04:50:26;76.55;;;23.45;;
36653;SDS011;22650;49.350;20.898;2022-12-18T04:53:00;80.65;;;23.50;;
36653;SDS011;22650;49.350;20.898;2022-12-18T04:55:34;80.53;;;22.70;;
36653;SDS011;22650;49.350;20.898;2022-12-18T04:58:07;76.07;;;22.13;;
36653;SDS011;22650;49.350;20.898;2022-12-18T05:00:41;66.82;;;21.55;;
36653;SDS011;22650;49.350;20.898;2022-12-18T05:03:14;66.15;;;20.85;;
36653;SDS011;22650;49.350;20.898;2022-12-18T05:05:50;79.30;;;20.85;;
36653;SDS011;22650;49.350;20.898;2022-12-18T05:08:23;70.88;;;19.85;;
36653;SDS011;22650;49.350;20.898;2022-12-18T05:11:00;63.40;;;20.70;;
36653;SDS011;22650;49.350;20.898;2022-12-18T05:13:35;59.25;;;18.75;;
36653;SDS011;22650;49.350;20.898;2022-12-18T05:16:12;77.45;;;22.08;;
36653;SDS011;22650;49.350;20.898;2022-12-18T05:18:46;64.45;;;22.27;;
36653;SDS011;22650;49.350;20.898;2022-12-18T05:21:20;65.90;;;21.30;;
36653;SDS011;22650;49.350;20.898;2022-12-18T05:23:54;61.20;;;18.42;;
36653;SDS011;22650;49.350;20.898;2022-12-18T05:26:27;69.05;;;20.45;;
36653;SDS011;22650;49.350;20.898;2022-12-18T05:29:01;66.03;;;18.83;;
36653;SDS011;22650;49.350;20.898;2022-12-18T05:31:34;59.38;;;19.55;;
36653;SDS011;22650;49.350;20.898;2022-12-18T05:34:10;67.55;;;21.33;;
36653;SDS011;22650;49.350;20.898;2022-12-18T05:36:45;70.30;;;19.73;;
36653;SDS011;22650;49.350;20.898;2022-12-18T05:39:18;72.45;;;20.50;;
36653;SDS011;22650;49.350;20.898;2022-12-18T05:41:52;69.43;;;21.40;;
36653;SDS011;22650;49.350;20.898;2022-12-18T05:44:25;53.72;;;19.08;;
36653;SDS011;22650;49.350;20.898;2022-12-18T05:46:59;61.33;;;20.90;;
36653;SDS011;22650;49.350;20.898;2022-12-18T05:49:32;72.30;;;20.15;;
36653;SDS011;22650;49.350;20.898;2022-12-18T05:52:07;48.83;;;16.75;;
36653;SDS011;22650;49.350;20.898;2022-12-18T05:54:40;56.75;;;17.77;;
36653;SDS011;22650;49.350;20.898;2022-12-18T05:57:13;54.70;;;17.70;;
36653;SDS011;22650;49.350;20.898;2022-12-18T05:59:47;66.05;;;18.50;;
36653;SDS011;22650;49.350;20.898;2022-12-18T06:02:20;61.83;;;17.92;;
36653;SDS011;22650;49.350;20.898;2022-12-18T06:04:53;69.50;;;19.27;;
36653;SDS011;22650;49.350;20.898;2022-12-18T06:07:28;68.60;;;21.60;;
36653;SDS011;22650;49.350;20.898;2022-12-18T06:10:02;78.63;;;22.67;;
36653;SDS011;22650;49.350;20.898;2022-12-18T06:12:35;78.72;;;24.10;;
36653;SDS011;22650;49.350;20.898;2022-12-18T06:15:09;86.75;;;26.70;;
36653;SDS011;22650;49.350;20.898;2022-12-18T06:17:42;79.38;;;24.58;;
36653;SDS011;22650;49.350;20.898;2022-12-18T06:20:17;80.82;;;23.38;;
36653;SDS011;22650;49.350;20.898;2022-12-18T06:22:51;91.15;;;26.17;;
36653;SDS011;22650;49.350;20.898;2022-12-18T06:25:25;72.10;;;22.08;;
36653;SDS011;22650;49.350;20.898;2022-12-18T06:27:58;74.13;;;24.17;;
36653;SDS011;22650;49.350;20.898;2022-12-18T06:30:32;66.43;;;24.05;;
36653;SDS011;22650;49.350;20.898;2022-12-18T06:33:05;72.05;;;21.35;;
36653;SDS011;22650;49.350;20.898;2022-12-18T06:35:38;58.92;;;21.13;;
36653;SDS011;22650;49.350;20.898;2022-12-18T06:38:13;86.72;;;22.88;;
36653;SDS011;22650;49.350;20.898;2022-12-18T06:40:46;82.00;;;26.08;;
36653;SDS011;22650;49.350;20.898;2022-12-18T06:43:19;75.82;;;26.25;;
36653;SDS011;22650;49.350;20.898;2022-12-18T06:45:59;196.50;;;56.13;;
36653;SDS011;22650;49.350;20.898;2022-12-18T06:48:34;193.20;;;53.72;;
36653;SDS011;22650;49.350;20.898;2022-12-18T06:51:07;115.10;;;33.40;;
36653;SDS011;22650;49.350;20.898;2022-12-18T06:53:42;98.18;;;33.97;;
36653;SDS011;22650;49.350;20.898;2022-12-18T06:56:16;90.88;;;30.55;;
36653;SDS011;22650;49.350;20.898;2022-12-18T06:58:49;118.50;;;38.20;;
36653;SDS011;22650;49.350;20.898;2022-12-18T07:01:22;137.98;;;43.40;;
36653;SDS011;22650;49.350;20.898;2022-12-18T07:03:56;201.00;;;66.25;;
36653;SDS011;22650;49.350;20.898;2022-12-18T07:06:30;132.18;;;45.35;;
36653;SDS011;22650;49.350;20.898;2022-12-18T07:09:04;146.65;;;47.65;;
36653;SDS011;22650;49.350;20.898;2022-12-18T07:11:38;109.13;;;36.72;;
36653;SDS011;22650;49.350;20.898;2022-12-18T07:14:11;109.43;;;35.42;;
36653;SDS011;22650;49.350;20.898;2022-12-18T07:16:44;98.03;;;33.05;;
36653;SDS011;22650;49.350;20.898;2022-12-18T07:19:18;87.30;;;32.60;;
36653;SDS011;22650;49.350;20.898;2022-12-18T07:21:51;96.18;;;30.20;;
36653;SDS011;22650;49.350;20.898;2022-12-18T07:24:26;105.97;;;36.15;;
36653;SDS011;22650;49.350;20.898;2022-12-18T07:26:59;99.03;;;34.53;;
36653;SDS011;22650;49.350;20.898;2022-12-18T07:29:33;100.05;;;34.10;;
36653;SDS011;22650;49.350;20.898;2022-12-18T07:32:06;91.05;;;32.95;;
36653;SDS011;22650;49.350;20.898;2022-12-18T07:34:40;99.32;;;34.45;;
36653;SDS011;22650;49.350;20.898;2022-12-18T07:37:14;88.05;;;33.05;;
36653;SDS011;22650;49.350;20.898;2022-12-18T07:39:49;101.22;;;33.45;;
36653;SDS011;22650;49.350;20.898;2022-12-18T07:42:22;119.05;;;40.70;;
36653;SDS011;22650;49.350;20.898;2022-12-18T07:47:38;136.38;;;43.63;;
36653;SDS011;22650;49.350;20.898;2022-12-18T07:50:12;156.60;;;53.63;;
36653;SDS011;22650;49.350;20.898;2022-12-18T07:52:46;159.48;;;51.53;;
36653;SDS011;22650;49.350;20.898;2022-12-18T07:55:20;161.25;;;47.08;;
36653;SDS011;22650;49.350;20.898;2022-12-18T07:57:54;115.35;;;37.83;;
36653;SDS011;22650;49.350;20.898;2022-12-18T08:00:31;124.78;;;37.35;;
36653;SDS011;22650;49.350;20.898;2022-12-18T08:03:05;107.72;;;34.70;;
36653;SDS011;22650;49.350;20.898;2022-12-18T08:05:38;102.43;;;34.90;;
36653;SDS011;22650;49.350;20.898;2022-12-18T08:08:11;143.15;;;41.85;;
36653;SDS011;22650;49.350;20.898;2022-12-18T08:10:46;139.75;;;48.30;;
36653;SDS011;22650;49.350;20.898;2022-12-18T08:13:19;165.70;;;50.53;;
36653;SDS011;22650;49.350;20.898;2022-12-18T08:15:56;171.93;;;54.50;;
36653;SDS011;22650;49.350;20.898;2022-12-18T08:18:31;159.10;;;51.08;;
36653;SDS011;22650;49.350;20.898;2022-12-18T08:21:08;158.98;;;55.63;;
36653;SDS011;22650;49.350;20.898;2022-12-18T08:23:42;161.20;;;55.58;;
36653;SDS011;22650;49.350;20.898;2022-12-18T08:26:18;144.90;;;50.17;;
36653;SDS011;22650;49.350;20.898;2022-12-18T08:28:53;136.15;;;45.92;;
36653;SDS011;22650;49.350;20.898;2022-12-18T08:31:27;171.93;;;57.60;;
36653;SDS011;22650;49.350;20.898;2022-12-18T08:34:01;152.90;;;51.70;;
36653;SDS011;22650;49.350;20.898;2022-12-18T08:36:35;154.52;;;51.20;;
36653;SDS011;22650;49.350;20.898;2022-12-18T08:39:08;159.82;;;53.20;;
36653;SDS011;22650;49.350;20.898;2022-12-18T08:41:43;152.60;;;53.63;;
36653;SDS011;22650;49.350;20.898;2022-12-18T08:44:40;146.02;;;49.00;;
36653;SDS011;22650;49.350;20.898;2022-12-18T08:47:13;141.82;;;49.45;;
36653;SDS011;22650;49.350;20.898;2022-12-18T08:49:46;137.05;;;43.22;;
36653;SDS011;22650;49.350;20.898;2022-12-18T08:52:20;124.38;;;43.33;;
36653;SDS011;22650;49.350;20.898;2022-12-18T08:54:53;117.32;;;40.25;;
36653;SDS011;22650;49.350;20.898;2022-12-18T08:57:27;100.20;;;33.42;;
36653;SDS011;22650;49.350;20.898;2022-12-18T09:00:01;94.47;;;31.80;;
36653;SDS011;22650;49.350;20.898;2022-12-18T09:02:34;95.07;;;31.58;;
36653;SDS011;22650;49.350;20.898;2022-12-18T09:05:08;136.05;;;41.35;;
36653;SDS011;22650;49.350;20.898;2022-12-18T09:07:41;93.38;;;31.77;;
36653;SDS011;22650;49.350;20.898;2022-12-18T09:10:15;45.83;;;16.77;;
36653;SDS011;22650;49.350;20.898;2022-12-18T09:12:51;52.08;;;15.48;;
36653;SDS011;22650;49.350;20.898;2022-12-18T09:15:24;42.92;;;14.73;;
36653;SDS011;22650;49.350;20.898;2022-12-18T09:17:58;42.47;;;16.23;;
36653;SDS011;22650;49.350;20.898;2022-12-18T09:20:31;44.88;;;15.55;;
36653;SDS011;22650;49.350;20.898;2022-12-18T09:23:04;45.13;;;16.27;;
36653;SDS011;22650;49.350;20.898;2022-12-18T09:25:38;39.20;;;15.32;;
36653;SDS011;22650;49.350;20.898;2022-12-18T09:28:13;44.25;;;14.27;;
36653;SDS011;22650;49.350;20.898;2022-12-18T09:30:48;40.70;;;13.52;;
36653;SDS011;22650;49.350;20.898;2022-12-18T09:33:22;39.95;;;15.00;;
36653;SDS011;22650;49.350;20.898;2022-12-18T09:35:55;48.63;;;15.25;;
36653;SDS011;22650;49.350;20.898;2022-12-18T09:38:28;36.60;;;14.13;;
36653;SDS011;22650;49.350;20.898;2022-12-18T09:41:03;39.05;;;14.43;;
36653;SDS011;22650;49.350;20.898;2022-12-18T09:43:48;45.33;;;14.55;;
36653;SDS011;22650;49.350;20.898;2022-12-18T09:46:25;43.55;;;14.63;;
36653;SDS011;22650;49.350;20.898;2022-12-18T09:49:02;58.78;;;14.95;;
36653;SDS011;22650;49.350;20.898;2022-12-18T09:51:41;46.15;;;13.88;;
36653;SDS011;22650;49.350;20.898;2022-12-18T09:54:18;37.55;;;12.70;;
36653;SDS011;22650;49.350;20.898;2022-12-18T09:56:54;44.35;;;14.60;;
36653;SDS011;22650;49.350;20.898;2022-12-18T09:59:32;40.95;;;11.80;;
36653;SDS011;22650;49.350;20.898;2022-12-18T10:02:12;50.70;;;14.20;;
36653;SDS011;22650;49.350;20.898;2022-12-18T10:04:49;34.75;;;12.18;;
36653;SDS011;22650;49.350;20.898;2022-12-18T10:07:38;43.28;;;14.85;;
36653;SDS011;22650;49.350;20.898;2022-12-18T10:10:19;41.08;;;12.77;;
36653;SDS011;22650;49.350;20.898;2022-12-18T10:13:00;38.13;;;13.05;;
36653;SDS011;22650;49.350;20.898;2022-12-18T10:15:47;41.55;;;13.40;;
36653;SDS011;22650;49.350;20.898;2022-12-18T10:18:50;36.47;;;12.60;;
36653;SDS011;22650;49.350;20.898;2022-12-18T10:21:36;37.63;;;13.65;;
36653;SDS011;22650;49.350;20.898;2022-12-18T10:24:18;37.20;;;13.20;;
36653;SDS011;22650;49.350;20.898;2022-12-18T10:26:59;44.28;;;13.02;;
36653;SDS011;22650;49.350;20.898;2022-12-18T10:29:43;38.72;;;12.60;;
36653;SDS011;22650;49.350;20.898;2022-12-18T10:32:20;44.35;;;13.82;;
36653;SDS011;22650;49.350;20.898;2022-12-18T10:34:56;36.42;;;12.57;;
36653;SDS011;22650;49.350;20.898;2022-12-18T10:37:31;35.47;;;11.43;;
36653;SDS011;22650;49.350;20.898;2022-12-18T10:40:06;37.00;;;12.75;;
36653;SDS011;22650;49.350;20.898;2022-12-18T10:42:57;38.72;;;13.32;;
36653;SDS011;22650;49.350;20.898;2022-12-18T10:45:36;35.08;;;11.98;;
36653;SDS011;22650;49.350;20.898;2022-12-18T10:48:21;36.80;;;12.80;;
36653;SDS011;22650;49.350;20.898;2022-12-18T10:50:56;30.20;;;10.93;;
36653;SDS011;22650;49.350;20.898;2022-12-18T10:53:50;37.83;;;11.27;;
36653;SDS011;22650;49.350;20.898;2022-12-18T10:56:27;37.28;;;11.07;;
36653;SDS011;22650;49.350;20.898;2022-12-18T10:59:02;38.15;;;12.18;;
36653;SDS011;22650;49.350;20.898;2022-12-18T11:01:50;34.28;;;11.75;;
36653;SDS011;22650;49.350;20.898;2022-12-18T11:04:28;36.25;;;11.82;;
36653;SDS011;22650;49.350;20.898;2022-12-18T11:07:02;32.25;;;11.02;;
36653;SDS011;22650;49.350;20.898;2022-12-18T11:09:37;34.58;;;11.73;;
36653;SDS011;22650;49.350;20.898;2022-12-18T11:12:14;33.40;;;11.35;;
36653;SDS011;22650;49.350;20.898;2022-12-18T11:14:49;35.30;;;12.75;;
36653;SDS011;22650;49.350;20.898;2022-12-18T11:17:25;34.10;;;9.82;;
36653;SDS011;22650;49.350;20.898;2022-12-18T11:20:04;30.98;;;11.10;;
36653;SDS011;22650;49.350;20.898;2022-12-18T11:22:39;31.63;;;10.68;;
36653;SDS011;22650;49.350;20.898;2022-12-18T11:25:17;32.00;;;11.63;;
36653;SDS011;22650;49.350;20.898;2022-12-18T11:28:25;37.30;;;11.45;;
36653;SDS011;22650;49.350;20.898;2022-12-18T11:34:05;40.17;;;12.40;;
36653;SDS011;22650;49.350;20.898;2022-12-18T11:37:00;35.15;;;11.07;;
36653;SDS011;22650;49.350;20.898;2022-12-18T11:39:37;39.75;;;12.13;;
36653;SDS011;22650;49.350;20.898;2022-12-18T11:42:14;30.67;;;11.40;;
36653;SDS011;22650;49.350;20.898;2022-12-18T11:44:54;30.52;;;10.20;;
36653;SDS011;22650;49.350;20.898;2022-12-18T11:47:34;35.17;;;10.52;;
36653;SDS011;22650;49.350;20.898;2022-12-18T11:50:13;26.30;;;9.65;;
36653;SDS011;22650;49.350;20.898;2022-12-18T11:52:51;28.50;;;10.30;;
36653;SDS011;22650;49.350;20.898;2022-12-18T11:55:47;35.20;;;11.50;;
36653;SDS011;22650;49.350;20.898;2022-12-18T11:58:30;32.90;;;11.23;;
36653;SDS011;22650;49.350;20.898;2022-12-18T12:01:16;34.78;;;11.38;;
36653;SDS011;22650;49.350;20.898;2022-12-18T12:04:03;30.20;;;11.27;;
36653;SDS011;22650;49.350;20.898;2022-12-18T12:06:51;34.85;;;10.90;;
36653;SDS011;22650;49.350;20.898;2022-12-18T12:09:37;25.85;;;9.93;;
36653;SDS011;22650;49.350;20.898;2022-12-18T12:12:24;30.70;;;10.60;;
36653;SDS011;22650;49.350;20.898;2022-12-18T12:15:23;32.80;;;10.45;;
36653;SDS011;22650;49.350;20.898;2022-12-18T12:18:06;30.73;;;12.30;;
36653;SDS011;22650;49.350;20.898;2022-12-18T12:20:49;27.65;;;9.30;;
36653;SDS011;22650;49.350;20.898;2022-12-18T12:23:29;33.78;;;10.32;;
36653;SDS011;22650;49.350;20.898;2022-12-18T12:26:14;27.98;;;9.88;;
36653;SDS011;22650;49.350;20.898;2022-12-18T12:28:57;27.25;;;11.38;;
36653;SDS011;22650;49.350;20.898;2022-12-18T12:31:42;30.45;;;10.60;;
36653;SDS011;22650;49.350;20.898;2022-12-18T12:34:34;31.92;;;12.27;;
36653;SDS011;22650;49.350;20.898;2022-12-18T12:37:20;26.65;;;10.07;;
36653;SDS011;22650;49.350;20.898;2022-12-18T12:40:03;34.05;;;11.52;;
36653;SDS011;22650;49.350;20.898;2022-12-18T12:42:59;32.72;;;11.85;;
36653;SDS011;22650;49.350;20.898;2022-12-18T12:45:46;33.08;;;10.10;;
36653;SDS011;22650;49.350;20.898;2022-12-18T12:48:28;24.92;;;10.20;;
36653;SDS011;22650;49.350;20.898;2022-12-18T12:51:08;28.35;;;10.80;;
36653;SDS011;22650;49.350;20.898;2022-12-18T12:53:47;31.75;;;10.15;;
36653;SDS011;22650;49.350;20.898;2022-12-18T12:56:21;30.98;;;10.73;;
36653;SDS011;22650;49.350;20.898;2022-12-18T12:59:01;33.10;;;11.02;;
36653;SDS011;22650;49.350;20.898;2022-12-18T13:01:47;30.85;;;10.65;;
36653;SDS011;22650;49.350;20.898;2022-12-18T13:04:28;35.17;;;11.93;;
36653;SDS011;22650;49.350;20.898;2022-12-18T13:07:11;30.33;;;11.23;;
36653;SDS011;22650;49.350;20.898;2022-12-18T13:12:53;34.28;;;12.43;;
36653;SDS011;22650;49.350;20.898;2022-12-18T13:15:36;34.60;;;13.05;;
36653;SDS011;22650;49.350;20.898;2022-12-18T13:18:13;35.17;;;11.40;;
36653;SDS011;22650;49.350;20.898;2022-12-18T13:21:02;24.38;;;11.38;;
36653;SDS011;22650;49.350;20.898;2022-12-18T13:23:41;32.05;;;11.63;;
36653;SDS011;22650;49.350;20.898;2022-12-18T13:26:29;31.98;;;14.18;;
36653;SDS011;22650;49.350;20.898;2022-12-18T13:29:04;34.42;;;11.93;;
36653;SDS011;22650;49.350;20.898;2022-12-18T13:31:58;39.03;;;17.05;;
36653;SDS011;22650;49.350;20.898;2022-12-18T13:34:32;54.92;;;20.67;;
36653;SDS011;22650;49.350;20.898;2022-12-18T13:43:35;33.83;;;13.88;;
36653;SDS011;22650;49.350;20.898;2022-12-18T13:46:19;37.55;;;15.00;;
36653;SDS011;22650;49.350;20.898;2022-12-18T13:48:57;36.55;;;12.20;;
36653;SDS011;22650;49.350;20.898;2022-12-18T13:51:33;48.78;;;16.27;;
36653;SDS011;22650;49.350;20.898;2022-12-18T13:54:13;43.25;;;17.63;;
36653;SDS011;22650;49.350;20.898;2022-12-18T13:56:52;47.55;;;18.88;;
36653;SDS011;22650;49.350;20.898;2022-12-18T13:59:26;55.40;;;22.15;;
36653;SDS011;22650;49.350;20.898;2022-12-18T14:02:11;66.97;;;23.10;;
36653;SDS011;22650;49.350;20.898;2022-12-18T14:04:49;55.17;;;20.20;;
36653;SDS011;22650;49.350;20.898;2022-12-18T14:07:23;35.72;;;14.02;;
36653;SDS011;22650;49.350;20.898;2022-12-18T14:10:02;40.03;;;14.15;;
36653;SDS011;22650;49.350;20.898;2022-12-18T14:12:56;47.58;;;19.73;;
36653;SDS011;22650;49.350;20.898;2022-12-18T14:15:38;47.20;;;19.30;;
36653;SDS011;22650;49.350;20.898;2022-12-18T14:18:19;50.22;;;16.42;;
36653;SDS011;22650;49.350;20.898;2022-12-18T14:20:57;42.88;;;14.75;;
36653;SDS011;22650;49.350;20.898;2022-12-18T14:23:33;43.15;;;17.10;;
36653;SDS011;22650;49.350;20.898;2022-12-18T14:26:19;56.25;;;21.42;;
36653;SDS011;22650;49.350;20.898;2022-12-18T14:28:56;55.65;;;21.30;;
36653;SDS011;22650;49.350;20.898;2022-12-18T14:31:32;52.70;;;19.08;;
36653;SDS011;22650;49.350;20.898;2022-12-18T14:34:08;61.78;;;20.92;;
36653;SDS011;22650;49.350;20.898;2022-12-18T14:36:53;55.30;;;17.75;;
36653;SDS011;22650;49.350;20.898;2022-12-18T14:39:27;53.13;;;20.40;;
36653;SDS011;22650;49.350;20.898;2022-12-18T14:42:00;57.80;;;19.77;;
36653;SDS011;22650;49.350;20.898;2022-12-18T14:44:34;51.13;;;19.33;;
36653;SDS011;22650;49.350;20.898;2022-12-18T14:47:27;50.03;;;17.60;;
36653;SDS011;22650;49.350;20.898;2022-12-18T14:50:00;41.08;;;13.15;;
36653;SDS011;22650;49.350;20.898;2022-12-18T14:52:37;38.60;;;12.85;;
36653;SDS011;22650;49.350;20.898;2022-12-18T14:55:14;46.50;;;13.88;;
36653;SDS011;22650;49.350;20.898;2022-12-18T14:57:49;46.90;;;16.55;;
36653;SDS011;22650;49.350;20.898;2022-12-18T15:00:25;61.05;;;19.90;;
36653;SDS011;22650;49.350;20.898;2022-12-18T15:02:58;54.67;;;17.25;;
36653;SDS011;22650;49.350;20.898;2022-12-18T15:05:32;44.38;;;14.35;;
36653;SDS011;22650;49.350;20.898;2022-12-18T15:11:23;49.03;;;14.85;;
36653;SDS011;22650;49.350;20.898;2022-12-18T15:13:59;53.63;;;17.77;;
36653;SDS011;22650;49.350;20.898;2022-12-18T15:16:33;58.15;;;17.50;;
36653;SDS011;22650;49.350;20.898;2022-12-18T15:19:08;59.92;;;19.60;;
36653;SDS011;22650;49.350;20.898;2022-12-18T15:21:42;64.20;;;19.35;;
36653;SDS011;22650;49.350;20.898;2022-12-18T15:24:24;59.38;;;18.27;;
36653;SDS011;22650;49.350;20.898;2022-12-18T15:27:02;48.90;;;17.35;;
36653;SDS011;22650;49.350;20.898;2022-12-18T15:29:36;53.90;;;17.83;;